Time;durP1;ratioP1;P1;durP2;ratioP2;P2;SDS_P1;SDS_P2;PMS_P1;PMS_P2;Temp;Humidity;BMP_temperature;BMP_pressure;BME280_temperature;BME280_humidity;BME280_pressure;Samples;Min_cycle;Max_cycle;Signal;HPM_P1;HPM_P2
2023/07/15 00:02:16;;;;;;;7.05;3.33;;;;;;;;;;5008308;28;20474;-72
2023/07/15 00:04:42;;;;;;;4.28;3.22;;;;;;;;;;4999910;28;20049;-71
2023/07/15 00:07:08;;;;;;;11.45;3.45;;;;;;;;;;4999985;28;20101;-71
2023/07/15 00:09:34;;;;;;;3.88;3.13;;;;;;;;;;4999022;28;20129;-71
2023/07/15 00:12:00;;;;;;;9.50;3.42;;;;;;;;;;4999200;28;20045;-71
2023/07/15 00:14:26;;;;;;;6.93;3.28;;;;;;;;;;5002403;28;20048;-72
2023/07/15 00:16:51;;;;;;;5.75;3.28;;;;;;;;;;5002187;28;20062;-72
2023/07/15 00:19:20;;;;;;;5.40;3.30;;;;;;;;;;5003847;28;20128;-71
2023/07/15 00:21:46;;;;;;;3.75;3.10;;;;;;;;;;5009279;28;20116;-72
2023/07/15 00:24:12;;;;;;;3.92;2.97;;;;;;;;;;4998858;28;20057;-71
2023/07/15 00:26:39;;;;;;;5.88;3.28;;;;;;;;;;5005130;28;20044;-71
2023/07/15 00:29:05;;;;;;;4.57;3.08;;;;;;;;;;4999523;28;20046;-71
2023/07/15 00:31:35;;;;;;;4.07;3.67;;;;;;;;;;5004129;28;20049;-71
2023/07/15 00:34:02;;;;;;;3.28;2.90;;;;;;;;;;5007381;28;20403;-72
2023/07/15 00:36:29;;;;;;;6.80;3.55;;;;;;;;;;5002033;28;20053;-71
2023/07/15 00:38:55;;;;;;;5.30;3.45;;;;;;;;;;5001445;28;20088;-72
2023/07/15 00:41:23;;;;;;;5.65;3.40;;;;;;;;;;5001655;28;20511;-71
2023/07/15 00:46:26;;;;;;;4.17;3.13;;;;;;;;;;5001994;28;20080;-71
2023/07/15 00:49:12;;;;;;;5.88;3.60;;;;;;;;;;5002618;28;20288;-72
2023/07/15 00:51:44;;;;;;;5.30;3.70;;;;;;;;;;4988613;28;20046;-73
2023/07/15 00:54:12;;;;;;;4.03;3.60;;;;;;;;;;5006018;28;20048;-74
2023/07/15 00:56:38;;;;;;;4.25;3.83;;;;;;;;;;5009803;28;20041;-73
2023/07/15 00:59:05;;;;;;;3.80;3.40;;;;;;;;;;5006213;28;20045;-73
2023/07/15 01:01:31;;;;;;;3.53;3.22;;;;;;;;;;5010601;28;20077;-73
2023/07/15 01:03:56;;;;;;;4.32;3.55;;;;;;;;;;5001250;28;20196;-72
2023/07/15 01:06:23;;;;;;;9.57;3.70;;;;;;;;;;5011942;28;20534;-72
2023/07/15 01:08:49;;;;;;;5.57;3.15;;;;;;;;;;5002744;28;20046;-72
2023/07/15 01:11:15;;;;;;;6.72;3.42;;;;;;;;;;5011574;28;20048;-71
2023/07/15 01:13:40;;;;;;;8.25;3.75;;;;;;;;;;5005640;28;20045;-70
2023/07/15 01:16:06;;;;;;;3.63;3.20;;;;;;;;;;5006281;28;20041;-71
2023/07/15 01:18:32;;;;;;;4.95;3.30;;;;;;;;;;5009149;28;20080;-72
2023/07/15 01:21:01;;;;;;;3.95;3.28;;;;;;;;;;5005682;28;20128;-71
2023/07/15 01:23:28;;;;;;;5.45;3.05;;;;;;;;;;4994261;28;20124;-73
2023/07/15 01:25:54;;;;;;;6.20;3.10;;;;;;;;;;5010266;28;20050;-73
2023/07/15 01:28:19;;;;;;;3.70;3.30;;;;;;;;;;5008650;28;20060;-73
2023/07/15 01:30:45;;;;;;;5.47;3.08;;;;;;;;;;5013918;28;20068;-73
2023/07/15 01:33:10;;;;;;;3.22;2.92;;;;;;;;;;5001589;28;20042;-73
2023/07/15 01:35:37;;;;;;;4.53;3.03;;;;;;;;;;5004837;28;20038;-73
2023/07/15 01:38:03;;;;;;;3.15;2.80;;;;;;;;;;5008070;28;20172;-73
2023/07/15 01:40:29;;;;;;;3.88;3.05;;;;;;;;;;5001887;28;20145;-71
2023/07/15 01:42:56;;;;;;;3.92;2.90;;;;;;;;;;5011124;28;20482;-72
2023/07/15 01:45:22;;;;;;;3.53;3.22;;;;;;;;;;5004515;28;20119;-72
2023/07/15 01:47:47;;;;;;;4.18;3.63;;;;;;;;;;5009380;28;20128;-72
2023/07/15 01:50:13;;;;;;;4.45;3.40;;;;;;;;;;5001129;28;20046;-72
2023/07/15 01:52:38;;;;;;;4.05;3.33;;;;;;;;;;5000290;28;20081;-73
2023/07/15 01:55:05;;;;;;;3.58;3.20;;;;;;;;;;5005253;28;20124;-73
2023/07/15 01:57:31;;;;;;;4.05;3.40;;;;;;;;;;5002415;28;20237;-72
2023/07/15 01:59:59;;;;;;;3.63;3.30;;;;;;;;;;5000632;28;20573;-72
2023/07/15 02:02:25;;;;;;;4.50;3.78;;;;;;;;;;5006073;28;20060;-71
2023/07/15 02:04:50;;;;;;;5.20;3.80;;;;;;;;;;5006307;28;20396;-72
2023/07/15 02:07:16;;;;;;;6.60;3.28;;;;;;;;;;5005370;28;20053;-73
2023/07/15 02:09:41;;;;;;;4.28;3.40;;;;;;;;;;5004795;28;20049;-72
2023/07/15 02:12:08;;;;;;;7.32;3.60;;;;;;;;;;5005730;28;20045;-72
2023/07/15 02:14:38;;;;;;;4.65;3.95;;;;;;;;;;5006496;28;20132;-74
2023/07/15 02:17:05;;;;;;;5.57;4.00;;;;;;;;;;5005887;28;20076;-71
2023/07/15 02:19:33;;;;;;;4.75;3.97;;;;;;;;;;5008358;28;20041;-72
2023/07/15 02:21:59;;;;;;;5.60;3.97;;;;;;;;;;4999718;28;20033;-72
2023/07/15 02:24:25;;;;;;;5.10;3.65;;;;;;;;;;5003399;28;20033;-72
2023/07/15 02:26:51;;;;;;;6.18;3.80;;;;;;;;;;5002126;28;20088;-72
2023/07/15 02:29:17;;;;;;;3.80;3.28;;;;;;;;;;4998541;28;20077;-72
2023/07/15 02:31:42;;;;;;;4.50;2.88;;;;;;;;;;4999217;28;20355;-72
2023/07/15 02:34:08;;;;;;;4.40;4.00;;;;;;;;;;5005901;28;20037;-72
2023/07/15 02:36:35;;;;;;;4.30;3.90;;;;;;;;;;5007281;28;20479;-72
2023/07/15 02:39:00;;;;;;;4.47;3.90;;;;;;;;;;5008048;28;20050;-72
2023/07/15 02:41:26;;;;;;;4.65;4.20;;;;;;;;;;4999792;28;20037;-72
2023/07/15 02:43:51;;;;;;;3.88;3.38;;;;;;;;;;5006266;28;20045;-71
2023/07/15 02:46:17;;;;;;;7.57;3.58;;;;;;;;;;4999699;28;20483;-71
2023/07/15 02:48:42;;;;;;;5.03;3.28;;;;;;;;;;5004817;28;20038;-71
2023/07/15 02:51:10;;;;;;;5.78;3.35;;;;;;;;;;5007107;28;20061;-71
2023/07/15 02:53:36;;;;;;;4.45;3.20;;;;;;;;;;5010076;28;20065;-71
2023/07/15 02:56:01;;;;;;;4.65;3.30;;;;;;;;;;4998650;28;20088;-71
2023/07/15 02:58:27;;;;;;;4.57;3.17;;;;;;;;;;4999966;28;20614;-73
2023/07/15 03:00:52;;;;;;;4.47;3.50;;;;;;;;;;5002110;28;20045;-72
2023/07/15 03:03:20;;;;;;;5.72;2.85;;;;;;;;;;4999084;28;20045;-72
2023/07/15 03:05:49;;;;;;;5.13;3.55;;;;;;;;;;5000561;28;20046;-73
2023/07/15 03:08:15;;;;;;;3.55;2.83;;;;;;;;;;4997799;28;20057;-72
2023/07/15 03:10:44;;;;;;;3.53;3.20;;;;;;;;;;4999140;28;20057;-72
2023/07/15 03:13:11;;;;;;;3.10;2.80;;;;;;;;;;5012495;28;20076;-72
2023/07/15 03:15:37;;;;;;;4.45;3.40;;;;;;;;;;4999514;28;20615;-72
2023/07/15 03:18:03;;;;;;;3.40;3.10;;;;;;;;;;5007004;28;20044;-72
2023/07/15 03:20:29;;;;;;;5.53;3.35;;;;;;;;;;5005233;28;20033;-72
2023/07/15 03:22:55;;;;;;;4.22;3.08;;;;;;;;;;5005690;28;20046;-72
2023/07/15 03:25:21;;;;;;;5.03;3.30;;;;;;;;;;5000380;28;20595;-72
2023/07/15 03:27:48;;;;;;;3.20;2.90;;;;;;;;;;4998718;28;20706;-72
2023/07/15 03:30:14;;;;;;;3.90;3.60;;;;;;;;;;5011997;28;20046;-72
2023/07/15 03:32:41;;;;;;;6.22;3.00;;;;;;;;;;5004529;28;20052;-71
2023/07/15 03:35:08;;;;;;;8.02;3.20;;;;;;;;;;5000808;28;20041;-72
2023/07/15 03:37:35;;;;;;;4.50;3.30;;;;;;;;;;4998849;28;20045;-71
2023/07/15 03:40:10;;;;;;;3.45;3.15;;;;;;;;;;5003281;28;20073;-72
2023/07/15 03:42:41;;;;;;;3.72;3.38;;;;;;;;;;5000070;28;20083;-71
2023/07/15 03:45:07;;;;;;;3.65;3.35;;;;;;;;;;4997903;28;20070;-71
2023/07/15 03:47:34;;;;;;;4.45;3.20;;;;;;;;;;5000274;28;20161;-71
2023/07/15 03:50:04;;;;;;;3.75;3.30;;;;;;;;;;4998960;28;20104;-71
2023/07/15 03:52:30;;;;;;;3.20;2.95;;;;;;;;;;4999441;28;20507;-71
2023/07/15 03:54:56;;;;;;;3.20;2.90;;;;;;;;;;4999936;28;20073;-71
2023/07/15 03:57:22;;;;;;;3.70;3.40;;;;;;;;;;4998868;28;20052;-71
2023/07/15 03:59:47;;;;;;;4.32;3.80;;;;;;;;;;4998583;28;20224;-71
2023/07/15 04:02:13;;;;;;;6.15;3.80;;;;;;;;;;5004329;28;20071;-72
2023/07/15 04:04:38;;;;;;;4.70;3.28;;;;;;;;;;5005626;28;20073;-71
2023/07/15 04:07:04;;;;;;;6.40;3.08;;;;;;;;;;5002499;28;20054;-72
2023/07/15 04:09:30;;;;;;;6.13;3.17;;;;;;;;;;5002305;28;21102;-73
2023/07/15 04:11:56;;;;;;;4.65;3.38;;;;;;;;;;5005717;28;20050;-73
2023/07/15 04:14:22;;;;;;;5.18;3.22;;;;;;;;;;5003810;28;20049;-72
2023/07/15 04:16:47;;;;;;;3.35;3.05;;;;;;;;;;5003568;28;20057;-73
2023/07/15 04:19:13;;;;;;;8.82;3.40;;;;;;;;;;5007730;28;20045;-73
2023/07/15 04:21:39;;;;;;;3.85;3.13;;;;;;;;;;5001980;28;20099;-73
2023/07/15 04:24:05;;;;;;;3.38;3.08;;;;;;;;;;5002539;28;20052;-73
2023/07/15 04:26:30;;;;;;;3.80;2.58;;;;;;;;;;5006112;28;20099;-71
2023/07/15 04:28:55;;;;;;;4.18;3.13;;;;;;;;;;5006811;28;20061;-72
2023/07/15 04:31:21;;;;;;;5.38;3.00;;;;;;;;;;5005780;28;20065;-71
2023/07/15 04:33:50;;;;;;;3.10;2.80;;;;;;;;;;5004827;28;20034;-71
2023/07/15 04:36:18;;;;;;;4.30;3.33;;;;;;;;;;5004693;28;20045;-72
2023/07/15 04:38:44;;;;;;;4.63;3.60;;;;;;;;;;5006982;28;20403;-71
2023/07/15 04:41:09;;;;;;;3.92;3.22;;;;;;;;;;5005030;28;20044;-72
2023/07/15 04:43:34;;;;;;;2.97;2.70;;;;;;;;;;5012258;28;20817;-71
2023/07/15 04:46:01;;;;;;;3.25;2.90;;;;;;;;;;5001439;28;20498;-71
2023/07/15 04:48:26;;;;;;;7.88;3.10;;;;;;;;;;5006987;28;20061;-71
2023/07/15 04:50:52;;;;;;;5.32;3.17;;;;;;;;;;5002181;28;20049;-71
2023/07/15 04:53:18;;;;;;;3.95;3.03;;;;;;;;;;5002076;28;20042;-71
2023/07/15 04:55:45;;;;;;;4.13;2.80;;;;;;;;;;5002932;28;20133;-71
2023/07/15 04:58:12;;;;;;;3.65;2.60;;;;;;;;;;5001626;28;20406;-71
2023/07/15 05:00:37;;;;;;;2.83;2.47;;;;;;;;;;5004159;28;20196;-71
2023/07/15 05:03:06;;;;;;;3.13;2.50;;;;;;;;;;5006495;28;20585;-71
2023/07/15 05:05:32;;;;;;;3.30;2.60;;;;;;;;;;5002672;28;20137;-71
2023/07/15 05:08:18;;;;;;;2.65;2.40;;;;;;;;;;5007475;28;20164;-74
2023/07/15 05:10:45;;;;;;;3.85;2.35;;;;;;;;;;5009807;28;20454;-75
2023/07/15 05:13:11;;;;;;;2.85;2.05;;;;;;;;;;5008147;28;20103;-72
2023/07/15 05:15:37;;;;;;;4.00;2.30;;;;;;;;;;5004484;28;20050;-71
2023/07/15 05:18:06;;;;;;;2.97;2.28;;;;;;;;;;4996927;28;20042;-72
2023/07/15 05:20:36;;;;;;;2.65;2.00;;;;;;;;;;5003373;28;20697;-72
2023/07/15 05:23:03;;;;;;;2.58;2.10;;;;;;;;;;5003506;28;20046;-72
2023/07/15 05:25:30;;;;;;;2.50;1.90;;;;;;;;;;5001721;28;20048;-71
2023/07/15 05:27:56;;;;;;;3.35;2.88;;;;;;;;;;5006333;28;20053;-72
2023/07/15 05:30:22;;;;;;;2.17;1.88;;;;;;;;;;5007176;28;20517;-71
2023/07/15 05:32:48;;;;;;;2.72;2.45;;;;;;;;;;5004718;28;20046;-72
2023/07/15 05:35:14;;;;;;;1.98;1.88;;;;;;;;;;4999587;28;20157;-72
2023/07/15 05:37:40;;;;;;;1.80;1.70;;;;;;;;;;5007858;28;20136;-72
2023/07/15 05:40:09;;;;;;;2.08;1.88;;;;;;;;;;5003149;28;20053;-71
2023/07/15 05:42:53;;;;;;;2.08;1.90;;;;;;;;;;5002158;28;20100;-72
2023/07/15 05:45:18;;;;;;;2.20;1.83;;;;;;;;;;5018046;28;20053;-72
2023/07/15 05:47:43;;;;;;;2.42;1.92;;;;;;;;;;5004936;28;20050;-72
2023/07/15 05:50:09;;;;;;;3.15;2.28;;;;;;;;;;5006155;28;20053;-72
2023/07/15 05:52:35;;;;;;;2.38;2.00;;;;;;;;;;5002862;28;20128;-73
2023/07/15 05:55:01;;;;;;;2.10;1.70;;;;;;;;;;5009664;28;20057;-72
2023/07/15 05:57:26;;;;;;;5.70;1.88;;;;;;;;;;5003450;28;20151;-73
2023/07/15 05:59:52;;;;;;;2.28;1.80;;;;;;;;;;5008881;28;20213;-73
2023/07/15 06:02:18;;;;;;;3.60;1.85;;;;;;;;;;5006505;28;20084;-73
2023/07/15 06:04:44;;;;;;;2.05;1.63;;;;;;;;;;5007813;28;20811;-73
2023/07/15 06:07:09;;;;;;;2.40;2.20;;;;;;;;;;5004127;28;20084;-72
2023/07/15 06:09:34;;;;;;;2.08;1.98;;;;;;;;;;5006468;28;20038;-73
2023/07/15 06:12:01;;;;;;;2.10;1.75;;;;;;;;;;5008048;28;20589;-72
2023/07/15 06:14:26;;;;;;;2.17;1.95;;;;;;;;;;5001805;28;20041;-72
2023/07/15 06:16:51;;;;;;;1.80;1.65;;;;;;;;;;5004364;28;20572;-72
2023/07/15 06:19:17;;;;;;;2.60;2.00;;;;;;;;;;5000369;28;20526;-72
2023/07/15 06:21:43;;;;;;;2.05;1.83;;;;;;;;;;5005172;28;20725;-72
2023/07/15 06:24:09;;;;;;;1.88;1.77;;;;;;;;;;5002286;28;20113;-72
2023/07/15 06:26:35;;;;;;;7.60;1.80;;;;;;;;;;5008337;28;20617;-72
2023/07/15 06:29:00;;;;;;;2.00;1.80;;;;;;;;;;5003476;28;20041;-73
2023/07/15 06:31:27;;;;;;;2.08;1.90;;;;;;;;;;5003237;28;20179;-72
2023/07/15 06:33:52;;;;;;;2.95;2.00;;;;;;;;;;5002668;28;20037;-72
2023/07/15 06:36:18;;;;;;;3.90;2.08;;;;;;;;;;5002185;28;20489;-72
2023/07/15 06:38:44;;;;;;;1.88;1.77;;;;;;;;;;5006183;28;20052;-72
2023/07/15 06:41:10;;;;;;;2.58;2.05;;;;;;;;;;5008161;28;20112;-73
2023/07/15 06:43:35;;;;;;;1.98;1.77;;;;;;;;;;5005765;28;20114;-72
2023/07/15 06:46:01;;;;;;;1.90;1.70;;;;;;;;;;5001781;28;20042;-72
2023/07/15 06:48:26;;;;;;;5.18;1.85;;;;;;;;;;5000325;28;20045;-72
2023/07/15 06:50:51;;;;;;;1.85;1.63;;;;;;;;;;5000767;28;20450;-73
2023/07/15 06:53:17;;;;;;;3.33;1.90;;;;;;;;;;5001963;28;20061;-73
2023/07/15 06:55:42;;;;;;;2.05;1.80;;;;;;;;;;5000924;28;20045;-72
2023/07/15 06:58:08;;;;;;;3.92;1.92;;;;;;;;;;4999730;28;20056;-73
2023/07/15 07:00:33;;;;;;;1.85;1.75;;;;;;;;;;4998877;28;20046;-73
2023/07/15 07:03:00;;;;;;;1.98;1.80;;;;;;;;;;5009740;28;20064;-73
2023/07/15 07:05:26;;;;;;;2.20;1.92;;;;;;;;;;5002529;28;20037;-72
2023/07/15 07:07:51;;;;;;;4.78;2.28;;;;;;;;;;5002546;28;20140;-72
2023/07/15 07:10:17;;;;;;;2.15;1.92;;;;;;;;;;5001907;28;20136;-72
2023/07/15 07:12:42;;;;;;;1.70;1.60;;;;;;;;;;5009100;28;20776;-72
2023/07/15 07:15:08;;;;;;;4.07;1.92;;;;;;;;;;5007597;28;20056;-72
2023/07/15 07:17:34;;;;;;;4.68;1.88;;;;;;;;;;5010234;28;20049;-72
2023/07/15 07:19:59;;;;;;;2.72;1.80;;;;;;;;;;5010872;28;20090;-72
2023/07/15 07:22:25;;;;;;;2.28;2.03;;;;;;;;;;5006235;28;20085;-73
2023/07/15 07:24:52;;;;;;;2.33;2.10;;;;;;;;;;5009721;28;20045;-72
2023/07/15 07:27:18;;;;;;;1.98;1.88;;;;;;;;;;5007718;28;20049;-72
2023/07/15 07:29:44;;;;;;;1.98;1.77;;;;;;;;;;5008256;28;20065;-72
2023/07/15 07:32:09;;;;;;;1.65;1.55;;;;;;;;;;5009316;28;20053;-72
2023/07/15 07:34:35;;;;;;;3.78;2.30;;;;;;;;;;5008894;28;20468;-72
2023/07/15 07:37:00;;;;;;;5.68;1.77;;;;;;;;;;5007730;28;20601;-72
2023/07/15 07:39:25;;;;;;;3.17;1.90;;;;;;;;;;5011114;28;20458;-73
2023/07/15 07:41:51;;;;;;;4.82;1.92;;;;;;;;;;5012319;28;20112;-72
2023/07/15 07:44:16;;;;;;;4.05;1.80;;;;;;;;;;5012504;28;20049;-73
2023/07/15 07:46:42;;;;;;;2.85;2.00;;;;;;;;;;5010909;28;20041;-72
2023/07/15 07:49:07;;;;;;;3.45;2.20;;;;;;;;;;5012327;28;20038;-73
2023/07/15 07:51:33;;;;;;;6.07;2.05;;;;;;;;;;5015635;28;20056;-73
2023/07/15 07:53:58;;;;;;;3.45;2.13;;;;;;;;;;5012574;28;20098;-72
2023/07/15 07:56:24;;;;;;;2.65;1.70;;;;;;;;;;5013655;28;20030;-73
2023/07/15 07:59:01;;;;;;;1.92;1.80;;;;;;;;;;5010533;28;20048;-73
2023/07/15 08:01:28;;;;;;;2.42;1.73;;;;;;;;;;5009868;28;20128;-73
2023/07/15 08:03:54;;;;;;;8.35;1.85;;;;;;;;;;5009146;28;20053;-71
2023/07/15 08:06:21;;;;;;;2.10;1.50;;;;;;;;;;5003363;28;20418;-72
2023/07/15 08:08:46;;;;;;;1.80;1.70;;;;;;;;;;5002271;28;20038;-73
2023/07/15 08:11:12;;;;;;;5.13;1.70;;;;;;;;;;5005031;28;21151;-73
2023/07/15 08:13:37;;;;;;;1.70;1.60;;;;;;;;;;5004250;28;20045;-72
2023/07/15 08:16:03;;;;;;;2.45;1.70;;;;;;;;;;5012820;28;20042;-72
2023/07/15 08:18:28;;;;;;;2.25;1.75;;;;;;;;;;5002384;28;20060;-73
2023/07/15 08:20:54;;;;;;;1.65;1.55;;;;;;;;;;5010455;28;20088;-70
2023/07/15 08:23:20;;;;;;;1.52;1.42;;;;;;;;;;5014941;28;20053;-73
2023/07/15 08:25:46;;;;;;;3.10;1.88;;;;;;;;;;5007157;28;20065;-73
2023/07/15 08:28:11;;;;;;;3.80;1.92;;;;;;;;;;5014358;28;20103;-72
2023/07/15 08:30:37;;;;;;;2.15;1.58;;;;;;;;;;4989767;28;20041;-72
2023/07/15 08:33:06;;;;;;;3.10;1.60;;;;;;;;;;5010320;28;20384;-73
2023/07/15 08:35:33;;;;;;;1.58;1.30;;;;;;;;;;5009570;28;20514;-73
2023/07/15 08:37:58;;;;;;;2.95;1.40;;;;;;;;;;5001959;28;20084;-72
2023/07/15 08:40:25;;;;;;;5.70;1.70;;;;;;;;;;5007186;28;20069;-73
2023/07/15 08:42:50;;;;;;;1.92;1.60;;;;;;;;;;5000536;28;20054;-72
2023/07/15 08:45:17;;;;;;;1.67;1.58;;;;;;;;;;5002537;28;20041;-73
2023/07/15 08:47:44;;;;;;;2.55;1.40;;;;;;;;;;5010488;28;20045;-72
2023/07/15 08:50:17;;;;;;;1.63;1.40;;;;;;;;;;5006193;28;20139;-72
2023/07/15 08:52:44;;;;;;;1.33;1.30;;;;;;;;;;5006498;28;20611;-72
2023/07/15 08:55:09;;;;;;;1.30;1.20;;;;;;;;;;5008952;28;20060;-72
2023/07/15 08:57:35;;;;;;;1.20;1.10;;;;;;;;;;5005070;28;20410;-72
2023/07/15 09:00:04;;;;;;;1.73;1.30;;;;;;;;;;5006888;28;20080;-72
2023/07/15 09:02:30;;;;;;;1.40;1.30;;;;;;;;;;5021227;28;20049;-72
2023/07/15 09:04:56;;;;;;;1.38;1.20;;;;;;;;;;5007197;28;20492;-72
2023/07/15 09:07:29;;;;;;;0.95;0.95;;;;;;;;;;5012565;28;20048;-72
2023/07/15 09:09:54;;;;;;;1.40;1.30;;;;;;;;;;5011754;28;20542;-72
2023/07/15 09:12:26;;;;;;;1.92;1.30;;;;;;;;;;5001373;28;20148;-72
2023/07/15 09:14:52;;;;;;;1.35;1.25;;;;;;;;;;5007750;28;20052;-72
2023/07/15 09:17:24;;;;;;;1.30;1.30;;;;;;;;;;5010624;28;20045;-73
2023/07/15 09:19:49;;;;;;;0.93;0.90;;;;;;;;;;5010925;28;20050;-72
2023/07/15 09:22:15;;;;;;;1.30;1.20;;;;;;;;;;5028074;28;21509;-72
2023/07/15 09:24:41;;;;;;;1.00;1.00;;;;;;;;;;5017675;28;20132;-72
2023/07/15 09:27:07;;;;;;;1.20;1.10;;;;;;;;;;5008263;28;20065;-72
2023/07/15 09:29:33;;;;;;;1.27;1.17;;;;;;;;;;5009015;28;20048;-72
2023/07/15 09:31:59;;;;;;;1.67;1.35;;;;;;;;;;5002316;28;20054;-72
2023/07/15 09:34:25;;;;;;;2.80;1.40;;;;;;;;;;5003062;28;20046;-72
2023/07/15 09:36:52;;;;;;;1.55;1.45;;;;;;;;;;5005945;28;20076;-73
2023/07/15 09:39:19;;;;;;;1.00;1.00;;;;;;;;;;5000022;28;20713;-72
2023/07/15 09:41:59;;;;;;;3.55;1.20;;;;;;;;;;5005153;28;20164;-71
2023/07/15 09:44:39;;;;;;;1.05;0.95;;;;;;;;;;5001122;28;20045;-72
2023/07/15 09:47:05;;;;;;;2.28;0.90;;;;;;;;;;5004748;28;20045;-72
2023/07/15 09:49:32;;;;;;;1.38;1.00;;;;;;;;;;5012505;28;20050;-72
2023/07/15 09:51:59;;;;;;;1.63;0.93;;;;;;;;;;5014584;28;20053;-73
2023/07/15 09:54:30;;;;;;;1.25;1.15;;;;;;;;;;5000534;28;20046;-72
2023/07/15 09:57:17;;;;;;;2.38;1.00;;;;;;;;;;5004957;28;20152;-73
2023/07/15 09:59:50;;;;;;;0.98;0.98;;;;;;;;;;5004191;28;20407;-73
2023/07/15 10:02:28;;;;;;;1.10;1.00;;;;;;;;;;5000473;28;20045;-73
2023/07/15 10:05:01;;;;;;;1.15;1.05;;;;;;;;;;5008851;28;20491;-72
2023/07/15 10:07:27;;;;;;;1.13;1.00;;;;;;;;;;5006478;28;20084;-73
2023/07/15 10:09:53;;;;;;;1.08;1.00;;;;;;;;;;5004229;28;20582;-73
2023/07/15 10:12:19;;;;;;;0.95;0.93;;;;;;;;;;5003081;28;20045;-74
2023/07/15 10:14:45;;;;;;;1.00;1.00;;;;;;;;;;4979873;28;20045;-73
2023/07/15 10:17:12;;;;;;;4.05;1.10;;;;;;;;;;5007973;28;20116;-74
2023/07/15 10:19:52;;;;;;;1.38;1.20;;;;;;;;;;5008035;28;20164;-73
2023/07/15 10:22:20;;;;;;;1.92;1.02;;;;;;;;;;5010263;28;20054;-73
2023/07/15 10:24:54;;;;;;;1.08;1.05;;;;;;;;;;5002712;28;20041;-72
2023/07/15 10:27:20;;;;;;;2.72;1.30;;;;;;;;;;5001317;28;20050;-73
2023/07/15 10:29:45;;;;;;;1.40;1.30;;;;;;;;;;5000334;28;20045;-74
2023/07/15 10:32:13;;;;;;;1.70;1.10;;;;;;;;;;5005814;28;20044;-73
2023/07/15 10:34:50;;;;;;;1.13;1.13;;;;;;;;;;5005065;28;20056;-73
2023/07/15 10:37:17;;;;;;;1.65;1.30;;;;;;;;;;5007334;28;20554;-73
2023/07/15 10:39:44;;;;;;;1.33;1.23;;;;;;;;;;5009865;28;20466;-73
2023/07/15 10:42:12;;;;;;;1.30;1.20;;;;;;;;;;5005930;28;20033;-73
2023/07/15 10:44:54;;;;;;;1.33;1.23;;;;;;;;;;5005162;28;20046;-73
2023/07/15 10:47:20;;;;;;;1.20;1.10;;;;;;;;;;5000659;28;20049;-73
2023/07/15 10:49:47;;;;;;;1.20;1.10;;;;;;;;;;5000053;28;20506;-73
2023/07/15 10:52:19;;;;;;;1.10;1.02;;;;;;;;;;5002133;28;20037;-73
2023/07/15 10:54:44;;;;;;;1.40;1.30;;;;;;;;;;5005992;28;20829;-73
2023/07/15 10:57:15;;;;;;;8.10;0.90;;;;;;;;;;5004420;28;20049;-73
2023/07/15 10:59:41;;;;;;;;;;;;;;;;;;5004156;28;20042;-73
2023/07/15 11:02:07;;;;;;;1.40;1.08;;;;;;;;;;5004658;28;19928;-73
2023/07/15 11:04:35;;;;;;;0.98;0.82;;;;;;;;;;5005691;28;20109;-73
2023/07/15 11:07:02;;;;;;;1.30;0.90;;;;;;;;;;5021592;28;20050;-73
2023/07/15 11:09:28;;;;;;;1.10;1.00;;;;;;;;;;5006328;28;20046;-73
2023/07/15 11:11:54;;;;;;;0.95;0.90;;;;;;;;;;5006647;28;20045;-73
2023/07/15 11:14:22;;;;;;;2.92;1.20;;;;;;;;;;5006873;28;20053;-73
2023/07/15 11:16:52;;;;;;;0.82;0.82;;;;;;;;;;5004964;28;20087;-73
2023/07/15 11:19:18;;;;;;;1.00;0.90;;;;;;;;;;5001504;28;20037;-74
2023/07/15 11:21:44;;;;;;;1.13;1.10;;;;;;;;;;5001736;28;20049;-72
2023/07/15 11:24:11;;;;;;;1.10;1.00;;;;;;;;;;5006603;28;20054;-73
2023/07/15 11:26:37;;;;;;;1.05;0.95;;;;;;;;;;5003620;28;20046;-72
2023/07/15 11:29:12;;;;;;;1.00;1.00;;;;;;;;;;5002463;28;20155;-75
2023/07/15 11:31:40;;;;;;;2.55;0.88;;;;;;;;;;5007214;28;20137;-74
2023/07/15 11:34:09;;;;;;;1.00;1.00;;;;;;;;;;5010852;28;20033;-71
2023/07/15 11:36:35;;;;;;;0.90;0.90;;;;;;;;;;5005207;28;20050;-73
2023/07/15 11:39:01;;;;;;;0.70;0.70;;;;;;;;;;5004465;28;20045;-74
2023/07/15 11:41:26;;;;;;;1.05;0.98;;;;;;;;;;5005624;28;20387;-75
2023/07/15 11:43:52;;;;;;;1.40;1.30;;;;;;;;;;5005824;28;20049;-74
2023/07/15 11:46:17;;;;;;;2.00;1.05;;;;;;;;;;5003822;28;20059;-74
2023/07/15 11:48:43;;;;;;;2.22;1.13;;;;;;;;;;5003969;28;20092;-74
2023/07/15 11:51:09;;;;;;;2.58;0.90;;;;;;;;;;5007889;28;20084;-75
2023/07/15 11:53:37;;;;;;;2.80;0.90;;;;;;;;;;5010735;28;20056;-72
2023/07/15 11:56:03;;;;;;;0.82;0.82;;;;;;;;;;5001125;28;20049;-71
2023/07/15 11:58:49;;;;;;;1.20;1.00;;;;;;;;;;5005914;28;20049;-72
2023/07/15 12:01:22;;;;;;;0.88;0.88;;;;;;;;;;5007187;28;20529;-74
2023/07/15 12:03:48;;;;;;;0.80;0.80;;;;;;;;;;5004695;28;20041;-74
2023/07/15 12:06:26;;;;;;;0.85;0.85;;;;;;;;;;4997549;28;20045;-71
2023/07/15 12:09:07;;;;;;;5.18;0.90;;;;;;;;;;5003832;28;20041;-72
2023/07/15 12:11:33;;;;;;;0.85;0.85;;;;;;;;;;5007472;28;20072;-71
2023/07/15 12:14:01;;;;;;;0.90;0.90;;;;;;;;;;5004309;28;20033;-72
2023/07/15 12:16:26;;;;;;;0.98;0.90;;;;;;;;;;5003805;28;20502;-71
2023/07/15 12:18:55;;;;;;;1.00;0.90;;;;;;;;;;5002348;28;20081;-72
2023/07/15 12:21:21;;;;;;;4.13;1.00;;;;;;;;;;5001789;28;20447;-72
2023/07/15 12:23:47;;;;;;;1.35;1.23;;;;;;;;;;5007446;28;20073;-71
2023/07/15 12:26:12;;;;;;;1.00;0.90;;;;;;;;;;4999638;28;20136;-71
2023/07/15 12:28:38;;;;;;;1.20;0.90;;;;;;;;;;5003318;28;20041;-71
2023/07/15 12:31:03;;;;;;;1.00;0.90;;;;;;;;;;5000090;28;20912;-71
2023/07/15 12:33:29;;;;;;;1.35;0.90;;;;;;;;;;5006071;28;20426;-71
2023/07/15 12:35:55;;;;;;;6.28;1.10;;;;;;;;;;5010225;28;20076;-71
2023/07/15 12:38:20;;;;;;;1.50;0.90;;;;;;;;;;5003293;28;20438;-71
2023/07/15 12:40:46;;;;;;;0.93;0.90;;;;;;;;;;5007413;28;20038;-71
2023/07/15 12:43:11;;;;;;;0.85;0.85;;;;;;;;;;5006063;28;20719;-71
2023/07/15 12:45:37;;;;;;;1.25;1.15;;;;;;;;;;5003799;28;20048;-71
2023/07/15 12:48:03;;;;;;;2.70;1.08;;;;;;;;;;5001098;28;20040;-71
2023/07/15 12:50:28;;;;;;;0.98;0.98;;;;;;;;;;5003446;28;20387;-72
2023/07/15 12:52:54;;;;;;;0.95;0.95;;;;;;;;;;5001593;28;20056;-73
2023/07/15 12:55:19;;;;;;;1.10;1.00;;;;;;;;;;5000991;28;20058;-73
2023/07/15 12:57:44;;;;;;;1.90;0.88;;;;;;;;;;5008364;28;20110;-72
2023/07/15 13:00:12;;;;;;;1.27;1.00;;;;;;;;;;5008101;28;20705;-72
2023/07/15 13:02:37;;;;;;;1.17;1.08;;;;;;;;;;5000158;28;20118;-72
2023/07/15 13:05:04;;;;;;;1.95;0.95;;;;;;;;;;5002706;28;20855;-72
2023/07/15 13:07:29;;;;;;;0.98;0.98;;;;;;;;;;5007481;28;20549;-72
2023/07/15 13:09:55;;;;;;;0.88;0.88;;;;;;;;;;5002503;28;20050;-72
2023/07/15 13:12:20;;;;;;;0.77;0.77;;;;;;;;;;5003464;28;20136;-72
2023/07/15 13:14:45;;;;;;;1.63;1.10;;;;;;;;;;5004599;28;20042;-72
2023/07/15 13:17:11;;;;;;;1.50;0.88;;;;;;;;;;5011267;28;20595;-71
2023/07/15 13:19:36;;;;;;;0.88;0.88;;;;;;;;;;4992770;28;20443;-72
2023/07/15 13:22:02;;;;;;;1.05;1.05;;;;;;;;;;5005061;28;20065;-71
2023/07/15 13:24:28;;;;;;;4.57;1.00;;;;;;;;;;5008593;28;20049;-70
2023/07/15 13:26:53;;;;;;;1.20;0.93;;;;;;;;;;5010887;28;20116;-72
2023/07/15 13:29:19;;;;;;;1.13;1.10;;;;;;;;;;5007126;28;20045;-71
2023/07/15 13:31:44;;;;;;;1.00;0.82;;;;;;;;;;5003353;28;20926;-71
2023/07/15 13:34:10;;;;;;;1.73;1.00;;;;;;;;;;5007688;28;21128;-71
2023/07/15 13:36:35;;;;;;;1.15;1.05;;;;;;;;;;5001592;28;20041;-69
2023/07/15 13:39:03;;;;;;;1.85;1.00;;;;;;;;;;5004056;28;20053;-70
2023/07/15 13:41:29;;;;;;;1.98;0.90;;;;;;;;;;5005866;28;20046;-71
2023/07/15 13:43:54;;;;;;;1.15;1.05;;;;;;;;;;5009711;28;20048;-68
2023/07/15 13:46:20;;;;;;;3.28;1.00;;;;;;;;;;5010746;28;20049;-71
2023/07/15 13:48:45;;;;;;;1.48;1.25;;;;;;;;;;5011638;28;20049;-71
2023/07/15 13:51:11;;;;;;;1.08;0.98;;;;;;;;;;5003056;28;20045;-70
2023/07/15 13:53:36;;;;;;;1.02;1.00;;;;;;;;;;5010704;28;20152;-70
2023/07/15 13:56:02;;;;;;;0.90;0.90;;;;;;;;;;5003985;28;20046;-70
2023/07/15 13:58:27;;;;;;;2.70;1.23;;;;;;;;;;5003119;28;20521;-70
2023/07/15 14:00:52;;;;;;;1.17;1.10;;;;;;;;;;5003585;28;20042;-69
2023/07/15 14:03:18;;;;;;;1.10;0.95;;;;;;;;;;5009373;28;20544;-70
2023/07/15 14:05:43;;;;;;;1.50;1.10;;;;;;;;;;5004145;28;20802;-72
2023/07/15 14:08:09;;;;;;;1.10;1.02;;;;;;;;;;5003700;28;20046;-74
2023/07/15 14:10:34;;;;;;;1.20;1.00;;;;;;;;;;5002961;28;20034;-70
2023/07/15 14:13:00;;;;;;;1.10;1.08;;;;;;;;;;5000379;28;20127;-71
2023/07/15 14:15:25;;;;;;;1.45;1.10;;;;;;;;;;5001010;28;20062;-71
2023/07/15 14:17:51;;;;;;;1.30;1.15;;;;;;;;;;5005487;28;20544;-71
2023/07/15 14:20:16;;;;;;;4.78;1.10;;;;;;;;;;5005473;28;20739;-69
2023/07/15 14:22:42;;;;;;;2.00;1.05;;;;;;;;;;5004527;28;20053;-70
2023/07/15 14:25:08;;;;;;;1.30;1.20;;;;;;;;;;5007548;28;20447;-71
2023/07/15 14:27:33;;;;;;;1.10;1.00;;;;;;;;;;5013093;28;20056;-71
2023/07/15 14:29:59;;;;;;;1.00;1.00;;;;;;;;;;5000012;28;20046;-71
2023/07/15 14:32:25;;;;;;;1.50;1.08;;;;;;;;;;5005292;28;20076;-71
2023/07/15 14:34:50;;;;;;;0.90;0.90;;;;;;;;;;5007874;28;20045;-70
2023/07/15 14:37:16;;;;;;;1.17;1.08;;;;;;;;;;5005615;28;20041;-70
2023/07/15 14:39:41;;;;;;;1.23;1.02;;;;;;;;;;5010127;28;20041;-70
2023/07/15 14:42:06;;;;;;;1.20;1.00;;;;;;;;;;5008745;28;20050;-70
2023/07/15 14:44:32;;;;;;;1.02;1.02;;;;;;;;;;5013588;28;20049;-70